createdAt,value
2018-03-18T00:00:31.695Z,46.17
2018-03-18T00:01:12.252Z,46.17
2018-03-18T00:01:52.817Z,46.36
2018-03-18T00:02:33.386Z,46.17
2018-03-18T00:03:13.968Z,46.26
2018-03-18T00:03:54.519Z,46.17
2018-03-18T00:04:35.091Z,46.17
2018-03-18T00:05:15.654Z,46.45
2018-03-18T00:05:56.226Z,46.26
2018-03-18T00:06:36.782Z,46.36
2018-03-18T00:07:17.327Z,46.36
2018-03-18T00:07:57.880Z,46.17
2018-03-18T00:08:38.464Z,46.45
2018-03-18T00:09:19.025Z,46.07
2018-03-18T00:09:59.638Z,46.17
2018-03-18T00:10:40.204Z,46.36
2018-03-18T00:11:20.787Z,46.07
2018-03-18T00:12:01.357Z,46.17
2018-03-18T00:12:41.939Z,46.26
2018-03-18T00:13:22.515Z,46.26
2018-03-18T00:14:03.069Z,46.36
2018-03-18T00:14:43.643Z,46.64
2018-03-18T00:15:24.230Z,46.36
2018-03-18T00:16:04.789Z,46.36
2018-03-18T00:16:45.358Z,46.36
2018-03-18T00:17:25.900Z,46.64
2018-03-18T00:18:06.980Z,46.64
2018-03-18T00:18:47.560Z,46.83
2018-03-18T00:19:28.124Z,46.92
2018-03-18T00:20:08.676Z,46.64
2018-03-18T00:20:49.240Z,46.73
2018-03-18T00:21:29.796Z,46.55
2018-03-18T00:22:10.462Z,46.92
2018-03-18T00:22:51.027Z,46.64
2018-03-18T00:23:31.592Z,47.11
2018-03-18T00:24:12.155Z,46.83
2018-03-18T00:24:52.722Z,47.39
2018-03-18T00:25:33.292Z,47.39
2018-03-18T00:26:13.857Z,47.3
2018-03-18T00:26:54.395Z,47.3
2018-03-18T00:27:35.000Z,47.39
2018-03-18T00:28:15.555Z,47.39
2018-03-18T00:28:56.111Z,46.64
2018-03-18T00:29:36.663Z,46.55
2018-03-18T00:30:17.227Z,46.83
2018-03-18T00:30:57.773Z,46.83
2018-03-18T00:31:38.343Z,46.92
2018-03-18T00:32:18.892Z,46.92
2018-03-18T00:32:59.519Z,46.83
2018-03-18T00:33:40.075Z,46.83
2018-03-18T00:34:20.632Z,46.73
2018-03-18T00:35:01.173Z,46.64
2018-03-18T00:35:41.741Z,46.64
2018-03-18T00:36:22.337Z,46.73
2018-03-18T00:37:02.892Z,46.92
2018-03-18T00:37:43.437Z,46.73
2018-03-18T00:38:24.150Z,46.92
2018-03-18T00:39:04.699Z,46.92
2018-03-18T00:39:45.259Z,46.92
2018-03-18T00:40:25.888Z,46.83
2018-03-18T00:41:06.472Z,46.64
2018-03-18T00:41:47.076Z,46.64
2018-03-18T00:42:27.684Z,47.49
2018-03-18T00:43:08.189Z,47.3
2018-03-18T00:43:48.763Z,47.2
2018-03-18T00:44:29.407Z,47.11
2018-03-18T00:45:09.916Z,46.92
2018-03-18T00:45:50.472Z,46.73
2018-03-18T00:46:31.026Z,46.73
2018-03-18T00:47:11.573Z,46.55
2018-03-18T00:47:52.132Z,46.83
2018-03-18T00:48:32.675Z,46.73
2018-03-18T00:49:13.298Z,46.55
2018-03-18T00:49:53.891Z,46.64
2018-03-18T00:50:34.437Z,46.73
2018-03-18T00:51:15.023Z,46.73
2018-03-18T00:51:55.606Z,47.02
2018-03-18T00:52:36.198Z,47.3
2018-03-18T00:53:16.772Z,47.3
2018-03-18T00:53:57.326Z,47.3
2018-03-18T00:54:37.895Z,47.3
2018-03-18T00:55:18.461Z,47.2
2018-03-18T00:55:59.070Z,47.2
2018-03-18T00:56:39.631Z,47.2
2018-03-18T00:57:20.199Z,47.2
2018-03-18T00:58:00.752Z,47.11
2018-03-18T00:58:41.344Z,47.02
2018-03-18T00:59:21.885Z,46.73
2018-03-18T01:00:02.486Z,46.92
2018-03-18T01:00:43.098Z,46.71
2018-03-18T01:01:23.973Z,46.61
2018-03-18T01:02:04.548Z,46.92
2018-03-18T01:02:45.138Z,46.92
2018-03-18T01:03:25.757Z,46.61
2018-03-18T01:04:06.436Z,47.11
2018-03-18T01:04:47.065Z,46.92
2018-03-18T01:05:27.622Z,46.83
2018-03-18T01:06:08.410Z,46.64
2018-03-18T01:06:48.997Z,46.73
2018-03-18T01:07:29.738Z,46.52
2018-03-18T01:08:10.317Z,46.99
2018-03-18T01:08:50.910Z,46.8
2018-03-18T01:09:31.490Z,46.73
2018-03-18T01:10:12.113Z,46.92
2018-03-18T01:10:52.658Z,46.52
2018-03-18T01:11:33.369Z,46.71
2018-03-18T01:12:13.823Z,46.73
2018-03-18T01:12:54.398Z,47.49
2018-03-18T01:13:34.948Z,47.02
2018-03-18T01:14:15.501Z,46.8
2018-03-18T01:14:56.058Z,46.73
2018-03-18T01:15:36.632Z,47.02
2018-03-18T01:16:17.232Z,46.73
2018-03-18T01:16:57.820Z,46.9
2018-03-18T01:17:38.371Z,46.8
2018-03-18T01:18:18.980Z,46.9
2018-03-18T01:18:59.558Z,46.8
2018-03-18T01:19:40.308Z,47.02
2018-03-18T01:20:20.779Z,46.9
2018-03-18T01:21:01.332Z,46.8
2018-03-18T01:21:41.979Z,47.09
2018-03-18T01:22:22.581Z,46.99
2018-03-18T01:23:03.159Z,47.46
2018-03-18T01:23:43.713Z,47.56
2018-03-18T01:24:24.277Z,47.56
2018-03-18T01:25:04.950Z,47.27
2018-03-18T01:25:45.524Z,47.27
2018-03-18T01:26:26.081Z,47.27
2018-03-18T01:27:06.854Z,47.27
2018-03-18T01:27:47.440Z,47.18
2018-03-18T01:28:28.058Z,47.37
2018-03-18T01:29:08.696Z,47.09
2018-03-18T01:29:49.263Z,47.37
2018-03-18T01:30:29.813Z,46.71
2018-03-18T01:31:10.389Z,46.8
2018-03-18T01:31:51.061Z,47.46
2018-03-18T01:32:31.782Z,47.39
2018-03-18T01:33:12.244Z,47.37
2018-03-18T01:33:52.813Z,47.46
2018-03-18T01:34:33.477Z,46.83
2018-03-18T01:35:14.058Z,46.61
2018-03-18T01:35:54.625Z,46.52
2018-03-18T01:36:35.185Z,46.71
2018-03-18T01:37:15.798Z,47.09
2018-03-18T01:37:56.363Z,47.56
2018-03-18T01:38:36.953Z,47.27
2018-03-18T01:39:17.506Z,47.65
2018-03-18T01:39:58.155Z,47.65
2018-03-18T01:40:38.716Z,47.37
2018-03-18T01:41:19.293Z,47.46
2018-03-18T01:41:59.843Z,47.09
2018-03-18T01:42:40.441Z,47.27
2018-03-18T01:43:21.017Z,47.27
2018-03-18T01:44:01.593Z,47.09
2018-03-18T01:44:42.158Z,46.61
2018-03-18T01:45:22.769Z,46.52
2018-03-18T01:46:03.318Z,46.8
2018-03-18T01:46:43.889Z,46.8
2018-03-18T01:47:24.479Z,46.9
2018-03-18T01:48:05.141Z,46.99
2018-03-18T01:48:45.693Z,46.8
2018-03-18T01:49:26.255Z,46.99
2018-03-18T01:50:06.891Z,46.61
2018-03-18T01:50:47.469Z,46.9
2018-03-18T01:51:28.083Z,46.9
2018-03-18T01:52:08.647Z,46.99
2018-03-18T01:52:49.226Z,46.99
2018-03-18T01:53:29.827Z,46.61
2018-03-18T01:54:10.385Z,46.71
2018-03-18T01:54:50.952Z,46.8
2018-03-18T01:55:31.511Z,46.8
2018-03-18T01:56:12.145Z,46.9
2018-03-18T01:56:52.740Z,46.61
2018-03-18T01:57:33.268Z,46.71
2018-03-18T01:58:13.833Z,46.42
2018-03-18T01:58:54.381Z,46.71
2018-03-18T01:59:34.933Z,46.9
2018-03-18T02:00:15.580Z,46.71
2018-03-18T02:00:56.149Z,47.09
2018-03-18T02:01:36.878Z,46.8
2018-03-18T02:02:17.440Z,46.71
2018-03-18T02:02:58.012Z,46.8
2018-03-18T02:03:38.555Z,47.09
2018-03-18T02:04:19.132Z,46.71
2018-03-18T02:04:59.698Z,46.33
2018-03-18T02:05:40.274Z,46.42
2018-03-18T02:06:20.848Z,46.71
2018-03-18T02:07:01.419Z,46.61
2018-03-18T02:07:41.988Z,46.99
2018-03-18T02:08:22.587Z,46.71
2018-03-18T02:09:03.139Z,46.71
2018-03-18T02:09:43.789Z,46.9
2018-03-18T02:10:24.341Z,46.71
2018-03-18T02:11:04.961Z,46.61
2018-03-18T02:11:45.513Z,46.71
2018-03-18T02:12:26.103Z,46.8
2018-03-18T02:13:06.767Z,46.9
2018-03-18T02:13:47.554Z,46.42
2018-03-18T02:14:28.130Z,46.42
2018-03-18T02:15:08.732Z,46.33
2018-03-18T02:15:49.282Z,46.33
2018-03-18T02:16:29.891Z,46.23
2018-03-18T02:17:10.557Z,46.33
2018-03-18T02:17:51.215Z,46.14
2018-03-18T02:18:31.784Z,46.23
2018-03-18T02:19:12.332Z,46.52
2018-03-18T02:19:52.888Z,46.23
2018-03-18T02:20:33.436Z,46.04
2018-03-18T02:21:14.001Z,46.04
2018-03-18T02:21:54.571Z,46.33
2018-03-18T02:22:35.146Z,46.23
2018-03-18T02:23:15.706Z,46.42
2018-03-18T02:23:56.278Z,46.23
2018-03-18T02:24:36.874Z,46.33
2018-03-18T02:25:17.440Z,46.33
2018-03-18T02:25:58.012Z,46.42
2018-03-18T02:26:38.568Z,46.99
2018-03-18T02:27:19.142Z,46.99
2018-03-18T02:27:59.710Z,46.61
2018-03-18T02:28:40.331Z,46.71
2018-03-18T02:29:20.952Z,46.23
2018-03-18T02:30:01.607Z,46.8
2018-03-18T02:30:42.173Z,46.8
2018-03-18T02:31:22.757Z,46.52
2018-03-18T02:32:03.309Z,46.52
2018-03-18T02:32:43.890Z,46.23
2018-03-18T02:33:24.462Z,46.33
2018-03-18T02:34:05.027Z,46.23
2018-03-18T02:34:45.577Z,46.42
2018-03-18T02:35:26.126Z,46.8
2018-03-18T02:36:06.793Z,46.9
2018-03-18T02:36:47.355Z,46.33
2018-03-18T02:37:27.910Z,46.14
2018-03-18T02:38:08.480Z,46.23
2018-03-18T02:38:49.032Z,46.23
2018-03-18T02:39:29.623Z,46.04
2018-03-18T02:40:10.185Z,46.14
2018-03-18T02:40:50.902Z,46.04
2018-03-18T02:41:31.303Z,46.61
2018-03-18T02:42:11.912Z,46.04
2018-03-18T02:42:52.462Z,46.14
2018-03-18T02:43:33.039Z,46.33
2018-03-18T02:44:13.641Z,46.42
2018-03-18T02:44:54.197Z,46.42
2018-03-18T02:45:34.768Z,46.52
2018-03-18T02:46:15.451Z,46.8
2018-03-18T02:46:55.923Z,46.9
2018-03-18T02:47:36.768Z,46.23
2018-03-18T02:48:17.278Z,46.8
2018-03-18T02:48:57.854Z,46.14
2018-03-18T02:49:38.430Z,46.42
2018-03-18T02:50:19.086Z,46.14
2018-03-18T02:50:59.661Z,46.23
2018-03-18T02:51:40.234Z,46.23
2018-03-18T02:52:20.790Z,46.33
2018-03-18T02:53:01.369Z,46.52
2018-03-18T02:53:41.915Z,46.33
2018-03-18T02:54:22.498Z,46.9
2018-03-18T02:55:03.104Z,46.23
2018-03-18T02:55:43.731Z,46.42
2018-03-18T02:56:24.441Z,46.23
2018-03-18T02:57:05.034Z,46.33
2018-03-18T02:57:45.632Z,46.8
2018-03-18T02:58:26.184Z,46.52
2018-03-18T02:59:06.732Z,46.52
2018-03-18T02:59:47.292Z,46.8
2018-03-18T03:00:27.841Z,46.61
2018-03-18T03:01:08.548Z,46.61
2018-03-18T03:01:49.131Z,46.52
2018-03-18T03:02:29.681Z,46.33
2018-03-18T03:03:10.279Z,46.33
2018-03-18T03:03:50.858Z,46.33
2018-03-18T03:04:31.417Z,46.42
2018-03-18T03:05:11.975Z,46.33
2018-03-18T03:05:52.532Z,46.33
2018-03-18T03:06:33.116Z,46.61
2018-03-18T03:07:13.685Z,46.61
2018-03-18T03:07:54.300Z,46.61
2018-03-18T03:08:34.850Z,46.99
2018-03-18T03:09:15.506Z,47.09
2018-03-18T03:09:56.061Z,46.9
2018-03-18T03:10:36.640Z,46.71
2018-03-18T03:11:17.210Z,46.23
2018-03-18T03:11:58.686Z,46.42
2018-03-18T03:12:38.370Z,46.61
2018-03-18T03:13:19.007Z,46.42
2018-03-18T03:13:59.496Z,46.33
2018-03-18T03:14:40.087Z,46.42
2018-03-18T03:15:20.651Z,46.33
2018-03-18T03:16:01.210Z,46.52
2018-03-18T03:16:41.762Z,46.42
2018-03-18T03:17:22.319Z,46.23
2018-03-18T03:18:02.876Z,46.71
2018-03-18T03:18:43.490Z,46.61
2018-03-18T03:19:24.082Z,47.09
2018-03-18T03:20:04.656Z,46.99
2018-03-18T03:20:45.230Z,46.99
2018-03-18T03:21:25.817Z,46.71
2018-03-18T03:22:06.371Z,47.09
2018-03-18T03:22:46.993Z,46.61
2018-03-18T03:23:27.560Z,46.9
2018-03-18T03:24:08.140Z,46.61
2018-03-18T03:24:48.693Z,46.61
2018-03-18T03:25:29.359Z,46.61
2018-03-18T03:26:09.961Z,46.99
2018-03-18T03:26:50.580Z,47.09
2018-03-18T03:27:31.132Z,46.8
2018-03-18T03:28:11.754Z,46.9
2018-03-18T03:28:52.326Z,46.8
2018-03-18T03:29:32.951Z,46.71
2018-03-18T03:30:13.506Z,46.61
2018-03-18T03:30:54.058Z,46.9
2018-03-18T03:31:34.669Z,46.71
2018-03-18T03:32:15.239Z,46.99
2018-03-18T03:32:55.808Z,46.42
2018-03-18T03:33:36.353Z,46.8
2018-03-18T03:34:16.980Z,46.61
2018-03-18T03:34:57.550Z,46.9
2018-03-18T03:35:38.114Z,46.99
2018-03-18T03:36:18.671Z,46.52
2018-03-18T03:36:59.352Z,46.9
2018-03-18T03:37:39.896Z,46.42
2018-03-18T03:38:20.474Z,46.99
2018-03-18T03:39:01.065Z,46.8
2018-03-18T03:39:41.638Z,46.61
2018-03-18T03:40:22.222Z,46.8
2018-03-18T03:41:02.776Z,46.8
2018-03-18T03:41:43.328Z,46.8
2018-03-18T03:42:23.896Z,47.09
2018-03-18T03:43:04.462Z,46.61
2018-03-18T03:43:45.031Z,47.18
2018-03-18T03:44:25.599Z,47.46
2018-03-18T03:45:06.156Z,47.27
2018-03-18T03:45:46.729Z,47.18
2018-03-18T03:46:27.281Z,47.18
2018-03-18T03:47:07.840Z,47.37
2018-03-18T03:47:48.426Z,47.37
2018-03-18T03:48:28.995Z,47.37
2018-03-18T03:49:09.592Z,47.37
2018-03-18T03:49:50.143Z,47.37
2018-03-18T03:50:30.819Z,47.46
2018-03-18T03:51:11.424Z,47.27
2018-03-18T03:51:52.009Z,47.65
2018-03-18T03:52:32.561Z,47.37
2018-03-18T03:53:13.138Z,47.65
2018-03-18T03:53:53.706Z,47.65
2018-03-18T03:54:34.321Z,47.37
2018-03-18T03:55:14.890Z,47.46
2018-03-18T03:55:55.537Z,47.56
2018-03-18T03:56:36.095Z,47.65
2018-03-18T03:57:16.774Z,47.65
2018-03-18T03:57:57.309Z,47.65
2018-03-18T03:58:37.926Z,47.56
2018-03-18T03:59:18.487Z,47.65
2018-03-18T03:59:59.171Z,48.22
2018-03-18T04:00:39.738Z,48.13
2018-03-18T04:01:20.297Z,48.03
2018-03-18T04:02:00.857Z,48.03
2018-03-18T04:02:41.497Z,48.13
2018-03-18T04:03:22.045Z,48.22
2018-03-18T04:04:02.684Z,48.03
2018-03-18T04:04:43.283Z,48.13
2018-03-18T04:05:24.034Z,48.13
2018-03-18T04:06:04.417Z,47.84
2018-03-18T04:06:45.067Z,47.75
2018-03-18T04:07:25.624Z,48.22
2018-03-18T04:08:06.212Z,48.32
2018-03-18T04:08:46.769Z,48.22
2018-03-18T04:09:27.376Z,48.22
2018-03-18T04:10:07.937Z,48.13
2018-03-18T04:10:48.493Z,47.75
2018-03-18T04:11:29.093Z,48.22
2018-03-18T04:12:09.749Z,48.22
2018-03-18T04:12:50.299Z,47.75
2018-03-18T04:13:30.916Z,48.13
2018-03-18T04:14:11.471Z,48.41
2018-03-18T04:14:52.090Z,48.88
2018-03-18T04:15:32.640Z,48.79
2018-03-18T04:16:13.259Z,48.5
2018-03-18T04:16:53.804Z,48.69
2018-03-18T04:17:34.451Z,48.79
2018-03-18T04:18:14.996Z,48.6
2018-03-18T04:18:56.019Z,48.69
2018-03-18T04:19:36.489Z,48.69
2018-03-18T04:20:17.044Z,48.69
2018-03-18T04:20:57.612Z,48.69
2018-03-18T04:21:38.173Z,48.69
2018-03-18T04:22:18.724Z,48.88
2018-03-18T04:22:59.333Z,48.79
2018-03-18T04:23:39.933Z,48.69
2018-03-18T04:24:20.517Z,48.69
2018-03-18T04:25:01.087Z,48.6
2018-03-18T04:25:41.713Z,48.69
2018-03-18T04:26:22.279Z,48.69
2018-03-18T04:27:02.913Z,48.88
2018-03-18T04:27:43.480Z,48.69
2018-03-18T04:28:24.058Z,48.69
2018-03-18T04:29:04.626Z,48.6
2018-03-18T04:29:45.403Z,48.41
2018-03-18T04:30:25.988Z,48.79
2018-03-18T04:31:06.705Z,48.69
2018-03-18T04:31:47.255Z,48.88
2018-03-18T04:32:27.863Z,48.69
2018-03-18T04:33:08.428Z,48.69
2018-03-18T04:33:49.106Z,48.6
2018-03-18T04:34:29.655Z,48.88
2018-03-18T04:35:10.248Z,48.97
2018-03-18T04:35:50.876Z,48.97
2018-03-18T04:36:31.514Z,48.79
2018-03-18T04:37:12.079Z,49.07
2018-03-18T04:37:52.773Z,49.26
2018-03-18T04:38:33.341Z,49.54
2018-03-18T04:39:14.046Z,49.16
2018-03-18T04:39:54.620Z,49.54
2018-03-18T04:40:35.175Z,49.26
2018-03-18T04:41:15.776Z,49.26
2018-03-18T04:41:56.477Z,49.44
2018-03-18T04:42:37.047Z,49.07
2018-03-18T04:43:17.667Z,49.16
2018-03-18T04:43:58.256Z,49.07
2018-03-18T04:44:38.896Z,48.69
2018-03-18T04:45:19.476Z,48.6
2018-03-18T04:46:00.047Z,48.88
2018-03-18T04:46:40.619Z,48.97
2018-03-18T04:47:21.354Z,49.26
2018-03-18T04:48:01.920Z,49.07
2018-03-18T04:48:42.485Z,49.07
2018-03-18T04:49:23.044Z,49.16
2018-03-18T04:50:03.680Z,49.63
2018-03-18T04:50:44.231Z,49.44
2018-03-18T04:51:24.928Z,49.44
2018-03-18T04:52:05.560Z,49.54
2018-03-18T04:52:46.091Z,49.16
2018-03-18T04:53:26.640Z,48.97
2018-03-18T04:54:07.341Z,48.97
2018-03-18T04:54:47.897Z,49.35
2018-03-18T04:55:28.477Z,49.54
2018-03-18T04:56:09.032Z,49.54
2018-03-18T04:56:49.660Z,49.54
2018-03-18T04:57:30.231Z,49.44
2018-03-18T04:58:10.795Z,49.44
2018-03-18T04:58:51.391Z,49.26
2018-03-18T04:59:31.950Z,49.54
2018-03-18T05:00:12.507Z,49.54
2018-03-18T05:00:53.064Z,49.63
2018-03-18T05:01:33.731Z,49.73
2018-03-18T05:02:14.286Z,49.35
2018-03-18T05:02:54.854Z,49.44
2018-03-18T05:03:35.401Z,49.63
2018-03-18T05:04:15.977Z,49.44
2018-03-18T05:04:56.535Z,49.63
2018-03-18T05:05:37.087Z,49.82
2018-03-18T05:06:17.645Z,49.73
2018-03-18T05:06:58.221Z,49.63
2018-03-18T05:07:38.784Z,49.82
2018-03-18T05:08:19.357Z,49.63
2018-03-18T05:08:59.932Z,49.54
2018-03-18T05:09:40.588Z,49.63
2018-03-18T05:10:21.190Z,49.82
2018-03-18T05:11:01.880Z,49.82
2018-03-18T05:11:42.425Z,49.73
2018-03-18T05:12:23.166Z,49.73
2018-03-18T05:13:03.651Z,49.73
2018-03-18T05:13:44.398Z,49.73
2018-03-18T05:14:24.960Z,49.73
2018-03-18T05:15:05.678Z,49.61
2018-03-18T05:15:46.230Z,49.73
2018-03-18T05:16:26.822Z,49.73
2018-03-18T05:17:07.403Z,50.01
2018-03-18T05:17:48.002Z,49.7
2018-03-18T05:18:28.560Z,49.82
2018-03-18T05:19:09.306Z,50.01
2018-03-18T05:19:49.740Z,49.91
2018-03-18T05:20:30.292Z,50.01
2018-03-18T05:21:10.836Z,50.29
2018-03-18T05:21:51.391Z,50.39
2018-03-18T05:22:31.945Z,50.1
2018-03-18T05:23:12.564Z,50.2
2018-03-18T05:23:53.132Z,50.2
2018-03-18T05:24:33.739Z,50.1
2018-03-18T05:25:14.295Z,50.2
2018-03-18T05:25:55.032Z,50.58
2018-03-18T05:26:35.583Z,50.67
2018-03-18T05:27:16.198Z,50.58
2018-03-18T05:27:56.749Z,50.48
2018-03-18T05:28:37.363Z,50.67
2018-03-18T05:29:17.926Z,50.58
2018-03-18T05:29:58.628Z,50.58
2018-03-18T05:30:39.180Z,50.29
2018-03-18T05:31:19.787Z,50.27
2018-03-18T05:32:00.346Z,50.48
2018-03-18T05:32:41.025Z,50.76
2018-03-18T05:33:21.596Z,50.58
2018-03-18T05:34:02.142Z,50.67
2018-03-18T05:34:42.825Z,50.76
2018-03-18T05:35:23.390Z,50.58
2018-03-18T05:36:03.942Z,50.48
2018-03-18T05:36:44.549Z,50.39
2018-03-18T05:37:25.270Z,50.76
2018-03-18T05:38:05.830Z,50.39
2018-03-18T05:38:46.390Z,50.67
2018-03-18T05:39:26.940Z,50.55
2018-03-18T05:40:07.583Z,51.24
2018-03-18T05:40:48.137Z,51.31
2018-03-18T05:41:28.690Z,50.48
2018-03-18T05:42:09.249Z,50.48
2018-03-18T05:42:49.808Z,50.67
2018-03-18T05:43:30.395Z,51.12
2018-03-18T05:44:10.998Z,51.24
2018-03-18T05:44:51.554Z,51.24
2018-03-18T05:45:32.123Z,51.33
2018-03-18T05:46:12.682Z,51.43
2018-03-18T05:46:53.286Z,51.05
2018-03-18T05:47:33.856Z,51.14
2018-03-18T05:48:14.481Z,51.14
2018-03-18T05:48:55.053Z,51.14
2018-03-18T05:49:35.711Z,51.62
2018-03-18T05:50:16.253Z,51.14
2018-03-18T05:50:56.881Z,51.14
2018-03-18T05:51:37.437Z,51.33
2018-03-18T05:52:18.239Z,51.43
2018-03-18T05:52:58.666Z,50.48
2018-03-18T05:53:39.234Z,50.39
2018-03-18T05:54:19.799Z,50.48
2018-03-18T05:55:00.374Z,50.76
2018-03-18T05:55:40.937Z,50.58
2018-03-18T05:56:21.597Z,50.48
2018-03-18T05:57:02.107Z,50.48
2018-03-18T05:57:42.667Z,50.58
2018-03-18T05:58:23.284Z,50.67
2018-03-18T05:59:03.868Z,50.76
2018-03-18T05:59:44.428Z,50.48
2018-03-18T06:00:25.159Z,50.76
2018-03-18T06:01:05.709Z,50.48
2018-03-18T06:01:46.339Z,50.39
2018-03-18T06:02:26.886Z,50.58
2018-03-18T06:03:07.438Z,50.29
2018-03-18T06:03:48.012Z,50.58
2018-03-18T06:04:28.563Z,50.48
2018-03-18T06:05:09.207Z,50.58
2018-03-18T06:05:49.758Z,50.58
2018-03-18T06:06:30.311Z,50.67
2018-03-18T06:07:10.865Z,50.76
2018-03-18T06:07:51.468Z,50.29
2018-03-18T06:08:32.018Z,50.58
2018-03-18T06:09:12.580Z,50.76
2018-03-18T06:09:53.143Z,50.58
2018-03-18T06:10:33.736Z,50.39
2018-03-18T06:11:14.282Z,50.58
2018-03-18T06:11:54.864Z,50.48
2018-03-18T06:12:35.440Z,50.58
2018-03-18T06:13:16.038Z,50.58
2018-03-18T06:13:56.598Z,50.29
2018-03-18T06:14:37.366Z,50.29
2018-03-18T06:15:17.963Z,50.67
2018-03-18T06:15:58.817Z,50.58
2018-03-18T06:16:39.375Z,50.48
2018-03-18T06:17:19.928Z,50.58
2018-03-18T06:18:00.524Z,50.58
2018-03-18T06:18:41.231Z,50.67
2018-03-18T06:19:21.788Z,50.76
2018-03-18T06:20:02.359Z,50.67
2018-03-18T06:20:42.920Z,50.48
2018-03-18T06:21:23.681Z,50.39
2018-03-18T06:22:04.226Z,50.29
2018-03-18T06:22:44.880Z,50.1
2018-03-18T06:23:25.450Z,50.29
2018-03-18T06:24:06.192Z,50.2
2018-03-18T06:24:46.806Z,50.2
2018-03-18T06:25:27.307Z,50.48
2018-03-18T06:26:07.855Z,50.48
2018-03-18T06:26:48.419Z,50.29
2018-03-18T06:27:28.971Z,50.29
2018-03-18T06:28:09.524Z,50.2
2018-03-18T06:28:50.075Z,50.1
2018-03-18T06:29:30.754Z,50.2
2018-03-18T06:30:11.312Z,50.1
2018-03-18T06:30:51.919Z,50.2
2018-03-18T06:31:32.480Z,50.29
2018-03-18T06:32:13.136Z,50.39
2018-03-18T06:32:53.693Z,49.82
2018-03-18T06:33:34.450Z,49.91
2018-03-18T06:34:15.019Z,49.63
2018-03-18T06:34:55.758Z,49.73
2018-03-18T06:35:36.334Z,50.1
2018-03-18T06:36:17.057Z,49.73
2018-03-18T06:36:57.616Z,49.35
2018-03-18T06:37:38.222Z,49.82
2018-03-18T06:38:18.841Z,49.63
2018-03-18T06:38:59.424Z,49.73
2018-03-18T06:39:39.988Z,49.44
2018-03-18T06:40:20.661Z,49.63
2018-03-18T06:41:01.235Z,49.91
2018-03-18T06:41:42.036Z,49.73
2018-03-18T06:42:22.555Z,49.73
2018-03-18T06:43:03.226Z,49.63
2018-03-18T06:43:43.831Z,50.01
2018-03-18T06:44:24.527Z,49.91
2018-03-18T06:45:05.082Z,49.73
2018-03-18T06:45:45.935Z,49.35
2018-03-18T06:46:26.490Z,49.63
2018-03-18T06:47:07.029Z,49.54
2018-03-18T06:47:47.631Z,49.54
2018-03-18T06:48:29.103Z,49.44
2018-03-18T06:49:54.044Z,49.54
2018-03-18T06:50:34.776Z,49.35
2018-03-18T06:51:15.314Z,49.63
2018-03-18T06:51:56.411Z,49.35
2018-03-18T06:52:37.477Z,49.73
2018-03-18T06:53:18.355Z,49.63
2018-03-18T06:53:58.911Z,49.63
2018-03-18T06:54:39.469Z,49.44
2018-03-18T06:55:20.059Z,49.44
2018-03-18T06:56:00.608Z,49.44
2018-03-18T06:56:41.274Z,49.44
2018-03-18T06:57:22.737Z,49.54
2018-03-18T06:58:03.545Z,49.35
2018-03-18T06:58:47.034Z,49.63
2018-03-18T06:59:28.499Z,49.44
2018-03-18T07:00:09.360Z,49.44
2018-03-18T07:00:49.962Z,49.63
2018-03-18T07:01:30.534Z,49.54
2018-03-18T07:02:11.108Z,49.35
2018-03-18T07:04:26.250Z,49.63
2018-03-18T07:05:07.308Z,49.35
2018-03-18T07:05:47.900Z,48.97
2018-03-18T07:06:28.447Z,48.97
2018-03-18T07:07:09.057Z,48.6
2018-03-18T07:07:49.613Z,48.6
2018-03-18T07:08:30.189Z,48.69
2018-03-18T07:09:10.757Z,48.5
2018-03-18T07:09:51.328Z,48.5
2018-03-18T07:10:31.884Z,48.41
2018-03-18T07:11:12.460Z,48.41
2018-03-18T07:11:53.030Z,48.5
2018-03-18T07:12:33.608Z,48.6
2018-03-18T07:13:14.163Z,48.69
2018-03-18T07:13:54.705Z,48.69
2018-03-18T07:14:35.304Z,48.69
2018-03-18T07:15:15.906Z,48.69
2018-03-18T07:15:56.452Z,48.79
2018-03-18T07:16:37.017Z,48.41
2018-03-18T07:17:17.607Z,48.6
2018-03-18T07:17:58.158Z,48.41
2018-03-18T07:18:38.714Z,48.32
2018-03-18T07:19:19.338Z,48.69
2018-03-18T07:19:59.970Z,47.84
2018-03-18T07:20:40.489Z,48.22
2018-03-18T07:21:21.043Z,47.94
2018-03-18T07:22:01.619Z,47.65
2018-03-18T07:22:42.171Z,47.37
2018-03-18T07:23:22.725Z,47.46
2018-03-18T07:24:03.277Z,47.65
2018-03-18T07:24:43.844Z,47.39
2018-03-18T07:25:24.431Z,47.3
2018-03-18T07:26:05.023Z,47.49
2018-03-18T07:26:45.570Z,46.92
2018-03-18T07:27:26.134Z,46.83
2018-03-18T07:28:06.697Z,47.11
2018-03-18T07:28:47.247Z,46.55
2018-03-18T07:29:27.812Z,45.79
2018-03-18T07:30:08.362Z,45.6
2018-03-18T07:30:49.013Z,45.69
2018-03-18T07:31:29.562Z,45.03
2018-03-18T07:32:10.134Z,45.03
2018-03-18T07:32:50.687Z,44.46
2018-03-18T07:33:31.240Z,44.39
2018-03-18T07:34:11.809Z,44.3
2018-03-18T07:34:52.421Z,43.73
2018-03-18T07:35:32.985Z,43.45
2018-03-18T07:36:13.564Z,42.79
2018-03-18T07:36:54.110Z,42.5
2018-03-18T07:37:34.676Z,41.85
2018-03-18T07:38:15.240Z,41.77
2018-03-18T07:38:55.816Z,41.49
2018-03-18T07:39:36.438Z,41.02
2018-03-18T07:40:17.050Z,40.35
2018-03-18T07:40:57.625Z,40.45
2018-03-18T07:41:38.188Z,39.71
2018-03-18T07:42:18.749Z,39.43
2018-03-18T07:42:59.304Z,38.57
2018-03-18T07:43:39.889Z,38.48
2018-03-18T07:44:20.440Z,37.82
2018-03-18T07:45:01.004Z,37.92
2018-03-18T07:45:41.558Z,37.35
2018-03-18T07:46:22.121Z,36.78
2018-03-18T07:47:02.683Z,36.68
2018-03-18T07:47:43.241Z,36.68
2018-03-18T07:48:23.825Z,36.31
2018-03-18T07:49:04.800Z,35.83
2018-03-18T07:49:45.472Z,35.93
2018-03-18T07:50:26.039Z,36.02
2018-03-18T07:51:06.609Z,36.12
2018-03-18T07:51:48.174Z,36.04
2018-03-18T07:52:29.117Z,35.76
2018-03-18T07:53:10.236Z,35.57
2018-03-18T07:53:50.825Z,35.47
2018-03-18T07:54:31.745Z,34.72
2018-03-18T07:55:12.639Z,34.63
2018-03-18T07:55:53.531Z,34.63
2018-03-18T07:56:34.249Z,34.17
2018-03-18T07:57:15.063Z,33.6
2018-03-18T07:57:55.663Z,33.22
2018-03-18T07:58:36.625Z,32.54
2018-03-18T07:59:17.557Z,32.92
2018-03-18T07:59:59.045Z,32.54
2018-03-18T08:00:39.841Z,33.12
2018-03-18T08:01:20.414Z,32.65
2018-03-18T08:02:01.243Z,32.65
2018-03-18T08:02:41.868Z,32.28
2018-03-18T08:03:22.606Z,32.37
2018-03-18T08:04:03.829Z,32.65
2018-03-18T08:04:44.417Z,32.37
2018-03-18T08:05:25.193Z,32.65
2018-03-18T08:06:06.002Z,34.92
2018-03-18T08:06:46.788Z,37.76
2018-03-18T08:07:27.798Z,38.16
2018-03-18T08:08:08.804Z,35.32
2018-03-18T08:08:50.014Z,33.62
2018-03-18T08:09:30.949Z,32.09
2018-03-18T08:10:11.921Z,31.42
2018-03-18T08:10:52.650Z,31.04
2018-03-18T08:11:33.227Z,30.66
2018-03-18T08:12:14.173Z,30.66
2018-03-18T08:12:54.937Z,30.95
2018-03-18T08:13:35.789Z,30.66
2018-03-18T08:14:16.505Z,30.68
2018-03-18T08:14:57.064Z,30.77
2018-03-18T08:15:37.834Z,30.3
2018-03-18T08:16:18.439Z,30.02
2018-03-18T08:16:59.084Z,29.83
2018-03-18T08:17:39.662Z,29.64
2018-03-18T08:18:20.618Z,29.83
2018-03-18T08:19:01.467Z,30.11
2018-03-18T08:19:42.117Z,29.64
2018-03-18T08:20:22.689Z,29.73
2018-03-18T08:21:03.248Z,29.92
2018-03-18T08:21:43.809Z,29.83
2018-03-18T08:22:24.373Z,29.62
2018-03-18T08:23:04.954Z,30
2018-03-18T08:23:45.554Z,30.47
2018-03-18T08:24:26.203Z,30.29
2018-03-18T08:25:06.840Z,30.38
2018-03-18T08:25:47.584Z,30.19
2018-03-18T08:26:28.175Z,30.66
2018-03-18T08:27:08.745Z,30.76
2018-03-18T08:27:49.315Z,30.95
2018-03-18T08:28:29.927Z,30
2018-03-18T08:29:10.448Z,30.38
2018-03-18T08:29:51.009Z,30.29
2018-03-18T08:30:31.575Z,30.1
2018-03-18T08:31:12.144Z,30.47
2018-03-18T08:31:52.725Z,29.81
2018-03-18T08:32:33.287Z,30
2018-03-18T08:33:13.851Z,30.38
2018-03-18T08:33:54.451Z,30.38
2018-03-18T08:34:35.061Z,30.57
2018-03-18T08:35:15.614Z,30.47
2018-03-18T08:35:56.410Z,30.66
2018-03-18T08:36:36.916Z,30.66
2018-03-18T08:37:17.507Z,30.76
2018-03-18T08:37:58.069Z,30.85
2018-03-18T08:38:38.632Z,30.66
2018-03-18T08:39:19.208Z,31.03
2018-03-18T08:39:59.790Z,30.93
2018-03-18T08:40:40.367Z,31.03
2018-03-18T08:41:20.963Z,31.03
2018-03-18T08:42:01.532Z,31.12
2018-03-18T08:42:42.097Z,31.31
2018-03-18T08:43:22.665Z,31.6
2018-03-18T08:44:03.224Z,31.69
2018-03-18T08:44:43.788Z,31.98
2018-03-18T08:45:24.355Z,31.98
2018-03-18T08:46:04.919Z,32.07
2018-03-18T08:46:45.543Z,32.26
2018-03-18T08:47:26.060Z,32.26
2018-03-18T08:48:06.655Z,32.26